Time;durP1;ratioP1;P1;durP2;ratioP2;P2;SDS_P1;SDS_P2;PMS_P1;PMS_P2;Temp;Humidity;BMP_temperature;BMP_pressure;BME280_temperature;BME280_humidity;BME280_pressure;Samples;Min_cycle;Max_cycle;Signal;HPM_P1;HPM_P2
2021/11/17 02:27:05;;;;;;;103.63;48.90;;;;;;;;;;5081239;28;20445;-76
2021/11/17 02:29:49;;;;;;;87.78;39.85;;;;;;;;;;5095482;28;20031;-75
2021/11/17 02:32:40;;;;;;;82.88;38.50;;;;;;;;;;5094977;28;20074;-74
2021/11/17 02:35:15;;;;;;;95.00;41.10;;;;;;;;;;5077320;28;20016;-73
2021/11/17 02:37:41;;;;;;;91.00;40.75;;;;;;;;;;5095159;28;20023;-73
2021/11/17 02:40:19;;;;;;;84.07;35.33;;;;;;;;;;5098920;28;20107;-75
2021/11/17 02:43:05;;;;;;;86.38;38.58;;;;;;;;;;5080940;28;20059;-75
2021/11/17 02:45:50;;;;;;;72.65;31.48;;;;;;;;;;5179812;22;20048;-78
2021/11/17 02:48:42;;;;;;;78.68;30.90;;;;;;;;;;5097332;22;20051;-68
2021/11/17 02:51:28;;;;;;;79.22;34.15;;;;;;;;;;5087270;28;20024;-69
2021/11/17 02:53:57;;;;;;;74.07;30.38;;;;;;;;;;5096852;28;20032;-69
2021/11/17 02:56:40;;;;;;;73.20;36.50;;;;;;;;;;5096425;28;20280;-70
2021/11/17 02:59:24;;;;;;;101.57;41.97;;;;;;;;;;5062356;28;20114;-68
2021/11/17 03:01:52;;;;;;;51.90;22.00;;;;;;;;;;5061916;28;20028;-69
2021/11/17 03:04:29;;;;;;;53.55;22.98;;;;;;;;;;5079086;28;20027;-68
2021/11/17 03:07:03;;;;;;;33.53;15.35;;;;;;;;;;5062355;28;20017;-68
2021/11/17 03:09:59;;;;;;;36.70;17.58;;;;;;;;;;5080164;28;20047;-68
2021/11/17 03:12:26;;;;;;;42.13;18.90;;;;;;;;;;5079301;28;20407;-69
2021/11/17 03:14:57;;;;;;;39.30;18.02;;;;;;;;;;5061376;28;20301;-69
2021/11/17 03:17:43;;;;;;;40.45;16.98;;;;;;;;;;5061145;28;20020;-69
2021/11/17 03:20:21;;;;;;;29.55;13.27;;;;;;;;;;5096348;28;20032;-68
2021/11/17 03:22:57;;;;;;;25.20;12.23;;;;;;;;;;5060758;28;20064;-69
2021/11/17 03:25:29;;;;;;;23.15;11.93;;;;;;;;;;5078060;28;20027;-69
2021/11/17 03:28:18;;;;;;;27.23;11.93;;;;;;;;;;5045830;28;20079;-69
2021/11/17 03:30:53;;;;;;;25.00;12.27;;;;;;;;;;5077832;28;20020;-69
2021/11/17 03:33:24;;;;;;;21.73;11.57;;;;;;;;;;5095594;28;20012;-68
2021/11/17 03:36:09;;;;;;;28.10;13.40;;;;;;;;;;5060571;28;20028;-68
2021/11/17 03:38:51;;;;;;;27.38;13.45;;;;;;;;;;5061742;28;20146;-70
2021/11/17 03:41:16;;;;;;;24.85;12.35;;;;;;;;;;5097172;28;20016;-68
2021/11/17 03:44:02;;;;;;;23.92;13.48;;;;;;;;;;5079034;28;20084;-68
2021/11/17 03:46:49;;;;;;;23.42;11.85;;;;;;;;;;5065318;28;20028;-68
2021/11/17 03:49:34;;;;;;;29.05;15.30;;;;;;;;;;5078421;28;20020;-68
2021/11/17 03:52:03;;;;;;;22.65;11.82;;;;;;;;;;5061880;28;20070;-68
2021/11/17 03:54:46;;;;;;;26.98;11.80;;;;;;;;;;5097201;28;20331;-70
2021/11/17 03:57:30;;;;;;;26.90;11.75;;;;;;;;;;5079367;28;20106;-69
2021/11/17 04:00:11;;;;;;;23.30;12.27;;;;;;;;;;5096648;28;20081;-69
2021/11/17 04:02:44;;;;;;;25.45;11.20;;;;;;;;;;5078283;28;20387;-70
2021/11/17 04:05:13;;;;;;;25.73;13.13;;;;;;;;;;5078564;28;20089;-69
2021/11/17 04:07:59;;;;;;;30.10;15.15;;;;;;;;;;5078870;28;20220;-69
2021/11/17 04:10:39;;;;;;;27.63;12.93;;;;;;;;;;5063260;28;20051;-69
2021/11/17 04:13:12;;;;;;;27.77;13.77;;;;;;;;;;5045433;28;20027;-69
2021/11/17 04:15:40;;;;;;;22.80;10.70;;;;;;;;;;5046162;28;20027;-70
2021/11/17 04:18:26;;;;;;;21.48;11.10;;;;;;;;;;5077600;28;20337;-70
2021/11/17 04:21:10;;;;;;;24.95;12.82;;;;;;;;;;5095592;28;20031;-68
2021/11/17 04:23:42;;;;;;;20.83;11.57;;;;;;;;;;5094589;28;20024;-68
2021/11/17 04:26:15;;;;;;;24.58;13.25;;;;;;;;;;5093873;28;20077;-68
2021/11/17 04:28:41;;;;;;;30.13;12.85;;;;;;;;;;5094149;28;20043;-69
2021/11/17 04:31:26;;;;;;;34.50;15.52;;;;;;;;;;5075893;28;20023;-69
2021/11/17 04:33:59;;;;;;;27.20;12.48;;;;;;;;;;5095056;28;20107;-69
2021/11/17 04:36:35;;;;;;;18.65;10.82;;;;;;;;;;5092842;28;20031;-69
2021/11/17 04:39:21;;;;;;;21.33;11.40;;;;;;;;;;5044469;28;20027;-69
2021/11/17 04:42:02;;;;;;;26.85;11.95;;;;;;;;;;5077339;28;20039;-68
2021/11/17 04:44:34;;;;;;;24.33;12.30;;;;;;;;;;5077753;28;20122;-68
2021/11/17 04:47:11;;;;;;;29.38;10.95;;;;;;;;;;5096316;28;20075;-69
2021/11/17 04:49:53;;;;;;;16.50;9.32;;;;;;;;;;5062383;28;20470;-71
2021/11/17 04:52:20;;;;;;;22.40;11.77;;;;;;;;;;5077805;28;20136;-69
2021/11/17 04:54:46;;;;;;;23.13;10.27;;;;;;;;;;5096311;28;20027;-69
2021/11/17 04:57:17;;;;;;;26.95;11.10;;;;;;;;;;5061095;28;20020;-69
2021/11/17 04:59:43;;;;;;;16.10;7.95;;;;;;;;;;5096276;28;20020;-69
2021/11/17 05:02:28;;;;;;;26.90;10.98;;;;;;;;;;5060360;28;20342;-69
2021/11/17 05:05:03;;;;;;;22.10;10.45;;;;;;;;;;5078098;28;20016;-68
2021/11/17 05:07:32;;;;;;;21.38;10.13;;;;;;;;;;5094406;28;20417;-69
2021/11/17 05:09:58;;;;;;;16.92;8.55;;;;;;;;;;5077358;28;20020;-69
2021/11/17 05:12:30;;;;;;;24.55;11.25;;;;;;;;;;5060600;28;20135;-69
2021/11/17 05:15:15;;;;;;;24.90;10.27;;;;;;;;;;5094719;28;20032;-69
2021/11/17 05:17:48;;;;;;;21.40;8.10;;;;;;;;;;5076505;28;20133;-69
2021/11/17 05:20:34;;;;;;;20.15;11.65;;;;;;;;;;5059674;28;20024;-69
2021/11/17 05:23:12;;;;;;;28.73;8.90;;;;;;;;;;5094895;28;20045;-69
2021/11/17 05:25:44;;;;;;;16.10;9.70;;;;;;;;;;5075923;28;20047;-69
2021/11/17 05:28:29;;;;;;;23.80;11.45;;;;;;;;;;5060423;28;20073;-69
2021/11/17 05:31:04;;;;;;;19.67;10.18;;;;;;;;;;5095622;28;20039;-69
2021/11/17 05:33:48;;;;;;;21.55;9.35;;;;;;;;;;5076741;28;20016;-69
2021/11/17 05:36:26;;;;;;;19.95;9.13;;;;;;;;;;5058842;28;20061;-70
2021/11/17 05:38:53;;;;;;;21.65;8.77;;;;;;;;;;5094773;28;20107;-69
2021/11/17 05:41:21;;;;;;;30.30;9.93;;;;;;;;;;5060634;28;20028;-70
2021/11/17 05:43:53;;;;;;;16.05;8.38;;;;;;;;;;5094349;28;20044;-69
2021/11/17 05:46:19;;;;;;;16.58;6.97;;;;;;;;;;5042348;28;20028;-69
2021/11/17 05:48:54;;;;;;;17.20;8.18;;;;;;;;;;5074858;28;20035;-69
2021/11/17 05:51:36;;;;;;;15.48;6.05;;;;;;;;;;5060674;28;20016;-71
2021/11/17 05:54:10;;;;;;;13.02;5.68;;;;;;;;;;5059163;28;20028;-70
2021/11/17 05:56:56;;;;;;;20.05;8.40;;;;;;;;;;5075706;28;20102;-69
2021/11/17 05:59:44;;;;;;;13.65;7.30;;;;;;;;;;5074073;28;20028;-69
2021/11/17 06:02:14;;;;;;;16.60;8.50;;;;;;;;;;5073803;28;20141;-69
2021/11/17 06:04:41;;;;;;;17.42;7.45;;;;;;;;;;5056343;28;20016;-70
2021/11/17 06:07:14;;;;;;;17.02;8.75;;;;;;;;;;5078278;28;20039;-70
2021/11/17 06:09:41;;;;;;;14.07;6.38;;;;;;;;;;5075853;28;20199;-69
2021/11/17 06:12:09;;;;;;;13.60;7.10;;;;;;;;;;5058210;28;20417;-71
2021/11/17 06:14:41;;;;;;;19.58;6.97;;;;;;;;;;5075118;28;20080;-69
2021/11/17 06:17:09;;;;;;;17.65;7.10;;;;;;;;;;5057141;28;20012;-69
2021/11/17 06:19:41;;;;;;;15.60;8.77;;;;;;;;;;5074904;28;20069;-69
2021/11/17 06:22:09;;;;;;;19.92;6.22;;;;;;;;;;5093198;28;20318;-69
2021/11/17 06:24:41;;;;;;;14.55;5.90;;;;;;;;;;5058491;28;20052;-69
2021/11/17 06:27:11;;;;;;;19.52;6.97;;;;;;;;;;5094271;28;20027;-69
2021/11/17 06:29:39;;;;;;;18.83;7.60;;;;;;;;;;5093310;28;20016;-69
2021/11/17 06:32:11;;;;;;;22.00;9.07;;;;;;;;;;5061062;28;20020;-69
2021/11/17 06:34:39;;;;;;;20.63;6.82;;;;;;;;;;5059836;28;20066;-70
2021/11/17 06:37:10;;;;;;;34.33;9.07;;;;;;;;;;5073737;28;20027;-68
2021/11/17 06:39:38;;;;;;;22.40;7.53;;;;;;;;;;5076257;28;20020;-69
2021/11/17 06:42:06;;;;;;;16.25;6.00;;;;;;;;;;5059692;28;20073;-69
2021/11/17 06:44:33;;;;;;;9.40;5.45;;;;;;;;;;5060294;28;20012;-69
2021/11/17 06:46:59;;;;;;;29.58;7.25;;;;;;;;;;5076390;28;20032;-69
2021/11/17 06:49:27;;;;;;;30.77;7.10;;;;;;;;;;5076869;28;20031;-69
2021/11/17 06:51:56;;;;;;;14.10;6.57;;;;;;;;;;5060444;28;20465;-69
2021/11/17 06:54:22;;;;;;;9.88;4.50;;;;;;;;;;5095183;28;20046;-69
2021/11/17 06:56:48;;;;;;;30.85;9.90;;;;;;;;;;5094887;28;20020;-70
2021/11/17 06:59:14;;;;;;;15.98;6.13;;;;;;;;;;5094555;28;20016;-70
2021/11/17 07:01:43;;;;;;;19.00;6.72;;;;;;;;;;5076240;28;20016;-70
2021/11/17 07:04:09;;;;;;;10.88;4.70;;;;;;;;;;5095447;28;20032;-69
2021/11/17 07:06:36;;;;;;;17.10;7.88;;;;;;;;;;5094705;28;20020;-69
2021/11/17 07:09:03;;;;;;;22.20;6.18;;;;;;;;;;5077082;28;20023;-70
2021/11/17 07:11:37;;;;;;;21.45;6.35;;;;;;;;;;5060114;28;20043;-70
2021/11/17 07:14:11;;;;;;;25.15;9.07;;;;;;;;;;5060068;28;20382;-69
2021/11/17 07:16:38;;;;;;;32.67;8.60;;;;;;;;;;5076426;28;20020;-70
2021/11/17 07:19:06;;;;;;;27.10;9.05;;;;;;;;;;5094589;28;20409;-70
2021/11/17 07:21:33;;;;;;;26.45;9.23;;;;;;;;;;5095020;28;20019;-69
2021/11/17 07:24:01;;;;;;;33.92;8.82;;;;;;;;;;5059497;28;20352;-70
2021/11/17 07:26:28;;;;;;;24.85;7.45;;;;;;;;;;5062340;28;20119;-69
2021/11/17 07:28:54;;;;;;;28.83;7.10;;;;;;;;;;5062544;28;20031;-69
2021/11/17 07:31:21;;;;;;;29.83;7.75;;;;;;;;;;5096441;28;20434;-70
2021/11/17 07:33:47;;;;;;;32.08;8.10;;;;;;;;;;5061903;28;20024;-68
2021/11/17 07:36:16;;;;;;;39.97;10.38;;;;;;;;;;5078484;28;20043;-69
2021/11/17 07:38:42;;;;;;;29.40;9.52;;;;;;;;;;5077868;28;20020;-69
2021/11/17 07:41:08;;;;;;;50.60;9.77;;;;;;;;;;5095926;28;20019;-70
2021/11/17 07:43:34;;;;;;;32.42;9.80;;;;;;;;;;5096698;28;20441;-70
2021/11/17 07:46:04;;;;;;;41.03;9.80;;;;;;;;;;5097977;28;20069;-70
2021/11/17 07:48:31;;;;;;;44.33;12.20;;;;;;;;;;5098137;28;20046;-70
2021/11/17 07:50:58;;;;;;;50.33;10.85;;;;;;;;;;5097368;28;20023;-70
2021/11/17 07:53:25;;;;;;;27.63;8.27;;;;;;;;;;5097415;28;20050;-69
2021/11/17 07:55:52;;;;;;;46.33;11.43;;;;;;;;;;5097114;28;20012;-70
2021/11/17 07:58:20;;;;;;;30.98;9.40;;;;;;;;;;5097931;28;20055;-70
2021/11/17 08:00:50;;;;;;;53.08;9.55;;;;;;;;;;5097251;28;20430;-69
2021/11/17 08:03:19;;;;;;;39.50;11.15;;;;;;;;;;5096871;28;20024;-69
2021/11/17 08:05:46;;;;;;;60.53;13.18;;;;;;;;;;5079873;28;20024;-69
2021/11/17 08:08:16;;;;;;;59.58;13.70;;;;;;;;;;5097898;28;20012;-69
2021/11/17 08:10:42;;;;;;;69.13;13.15;;;;;;;;;;5097439;28;20020;-69
2021/11/17 08:13:08;;;;;;;72.78;13.02;;;;;;;;;;5098313;28;20046;-70
2021/11/17 08:15:34;;;;;;;74.65;13.05;;;;;;;;;;5097477;28;20086;-69
2021/11/17 08:18:01;;;;;;;98.75;15.20;;;;;;;;;;5097586;28;20016;-68
2021/11/17 08:20:27;;;;;;;55.55;11.75;;;;;;;;;;5097606;28;20179;-68
2021/11/17 08:22:54;;;;;;;61.30;9.48;;;;;;;;;;5047218;28;20066;-69
2021/11/17 08:25:22;;;;;;;75.65;13.18;;;;;;;;;;5080211;28;20039;-69
2021/11/17 08:27:48;;;;;;;35.33;9.48;;;;;;;;;;5080334;28;20012;-69
2021/11/17 08:30:22;;;;;;;30.63;9.23;;;;;;;;;;5097681;28;20089;-70
2021/11/17 08:32:51;;;;;;;42.65;9.05;;;;;;;;;;5079512;28;20032;-70
2021/11/17 08:35:20;;;;;;;61.83;12.65;;;;;;;;;;5079173;28;20429;-70
2021/11/17 08:37:47;;;;;;;46.85;10.82;;;;;;;;;;5078360;28;20085;-70
2021/11/17 08:40:18;;;;;;;55.33;9.30;;;;;;;;;;5096157;28;20225;-70
2021/11/17 08:42:44;;;;;;;;;;;;;;;;;;5062297;28;20036;-70
2021/11/17 08:45:10;;;;;;;55.05;11.18;;;;;;;;;;5096454;28;19908;-70
2021/11/17 08:47:36;;;;;;;91.78;12.40;;;;;;;;;;5078533;28;20034;-70
2021/11/17 08:50:04;;;;;;;37.78;9.45;;;;;;;;;;5095635;28;20028;-70
2021/11/17 08:52:33;;;;;;;46.25;11.85;;;;;;;;;;5095847;28;20023;-70
2021/11/17 08:54:59;;;;;;;68.45;12.60;;;;;;;;;;5095015;28;20115;-70
2021/11/17 08:57:26;;;;;;;62.80;14.95;;;;;;;;;;5097109;28;20024;-70
2021/11/17 08:59:52;;;;;;;57.00;13.43;;;;;;;;;;5079240;28;20019;-71
2021/11/17 09:02:18;;;;;;;47.30;10.50;;;;;;;;;;5095770;28;20051;-70
2021/11/17 09:04:45;;;;;;;51.67;10.43;;;;;;;;;;5096911;28;20425;-70
2021/11/17 09:07:12;;;;;;;12.57;7.40;;;;;;;;;;5077611;28;20059;-70
2021/11/17 09:09:39;;;;;;;37.20;9.43;;;;;;;;;;5077594;28;20103;-70
2021/11/17 09:12:05;;;;;;;68.20;13.30;;;;;;;;;;5078714;28;20016;-70
2021/11/17 09:14:34;;;;;;;38.45;9.40;;;;;;;;;;5078778;28;20027;-70
2021/11/17 09:17:01;;;;;;;50.92;13.40;;;;;;;;;;5079588;28;20028;-70
2021/11/17 09:19:27;;;;;;;70.45;14.23;;;;;;;;;;5097850;28;20065;-70
2021/11/17 09:21:53;;;;;;;82.40;14.40;;;;;;;;;;5097576;28;20028;-70
2021/11/17 09:24:21;;;;;;;71.53;14.02;;;;;;;;;;5097650;28;20326;-70
2021/11/17 09:26:48;;;;;;;47.53;12.05;;;;;;;;;;5063154;28;20016;-70
2021/11/17 09:29:15;;;;;;;100.72;14.13;;;;;;;;;;5079692;28;20440;-70
2021/11/17 09:31:43;;;;;;;68.80;17.63;;;;;;;;;;5098022;28;20413;-70
2021/11/17 09:34:10;;;;;;;91.80;14.02;;;;;;;;;;5098068;28;20043;-70
2021/11/17 09:36:36;;;;;;;74.60;16.75;;;;;;;;;;5097512;28;20355;-70
2021/11/17 09:39:04;;;;;;;107.88;19.15;;;;;;;;;;5098081;28;20413;-70
2021/11/17 09:41:41;;;;;;;83.07;13.30;;;;;;;;;;5098369;28;20035;-70
2021/11/17 09:44:12;;;;;;;98.65;17.05;;;;;;;;;;5097796;28;20082;-70
2021/11/17 09:46:39;;;;;;;93.25;17.73;;;;;;;;;;5079889;28;20136;-70
2021/11/17 09:49:25;;;;;;;62.97;15.45;;;;;;;;;;5096556;28;20406;-70
2021/11/17 09:51:54;;;;;;;69.35;13.90;;;;;;;;;;5062103;28;20070;-70
2021/11/17 09:54:27;;;;;;;83.43;15.07;;;;;;;;;;5079296;28;20065;-70
2021/11/17 09:56:58;;;;;;;90.90;14.77;;;;;;;;;;5097411;28;20519;-69
2021/11/17 09:59:47;;;;;;;87.18;15.60;;;;;;;;;;5096677;28;20374;-69
2021/11/17 10:02:29;;;;;;;78.90;14.98;;;;;;;;;;5087134;28;20051;-69
2021/11/17 10:05:00;;;;;;;97.90;18.08;;;;;;;;;;5079469;28;20049;-69
2021/11/17 10:15:20;;;;;;;48.20;12.25;;;;;;;;;;5096739;28;20103;-69
2021/11/17 10:17:53;;;;;;;88.50;13.75;;;;;;;;;;5097265;28;20024;-69
2021/11/17 10:20:34;;;;;;;68.88;15.13;;;;;;;;;;5078486;28;20035;-69
2021/11/17 10:23:07;;;;;;;87.25;14.48;;;;;;;;;;5079462;28;20028;-70
2021/11/17 10:25:53;;;;;;;66.43;16.63;;;;;;;;;;5097308;28;20099;-70
2021/11/17 10:28:21;;;;;;;56.83;12.98;;;;;;;;;;5079247;28;20360;-70
2021/11/17 10:30:54;;;;;;;70.50;17.60;;;;;;;;;;5078842;28;20017;-70
2021/11/17 10:33:22;;;;;;;65.15;14.80;;;;;;;;;;5097362;28;20061;-70
2021/11/17 10:36:04;;;;;;;82.30;15.45;;;;;;;;;;5079402;28;20411;-70
2021/11/17 10:38:32;;;;;;;72.57;14.75;;;;;;;;;;5096745;28;20044;-70
2021/11/17 10:41:03;;;;;;;87.85;15.10;;;;;;;;;;5097256;28;20020;-70
2021/11/17 10:43:29;;;;;;;78.35;15.38;;;;;;;;;;5078733;28;20082;-70
2021/11/17 10:45:58;;;;;;;72.45;16.92;;;;;;;;;;5078901;28;20024;-70
2021/11/17 10:48:29;;;;;;;53.72;11.05;;;;;;;;;;5062409;28;20039;-70
2021/11/17 10:51:11;;;;;;;78.82;14.00;;;;;;;;;;5078902;28;20027;-70
2021/11/17 10:53:37;;;;;;;91.00;16.65;;;;;;;;;;5096688;28;20012;-70
2021/11/17 10:56:05;;;;;;;101.03;17.45;;;;;;;;;;5097335;28;20413;-70
2021/11/17 10:58:34;;;;;;;108.50;20.00;;;;;;;;;;5078648;28;20456;-70
2021/11/17 11:01:20;;;;;;;65.93;17.08;;;;;;;;;;5082717;28;20337;-70
2021/11/17 11:03:54;;;;;;;99.57;24.05;;;;;;;;;;5100873;28;20404;-70
2021/11/17 11:06:20;;;;;;;80.13;19.65;;;;;;;;;;5083070;28;20024;-70
2021/11/17 11:08:47;;;;;;;107.70;19.75;;;;;;;;;;5101185;28;20020;-70
2021/11/17 11:11:13;;;;;;;100.68;18.10;;;;;;;;;;5083171;28;20020;-70
2021/11/17 11:13:54;;;;;;;68.68;16.98;;;;;;;;;;5101123;28;20012;-69
2021/11/17 11:16:22;;;;;;;77.03;17.88;;;;;;;;;;5100874;28;20061;-69
2021/11/17 11:19:14;;;;;;;83.13;17.80;;;;;;;;;;5083180;28;20028;-69
2021/11/17 11:21:40;;;;;;;69.68;18.70;;;;;;;;;;5082795;28;20039;-69
2021/11/17 11:24:09;;;;;;;91.60;18.33;;;;;;;;;;5101402;28;20369;-69
2021/11/17 11:27:04;;;;;;;87.57;20.15;;;;;;;;;;5101396;28;20091;-69
2021/11/17 11:29:34;;;;;;;72.75;18.65;;;;;;;;;;5083789;28;20039;-69
2021/11/17 11:32:00;;;;;;;86.45;19.60;;;;;;;;;;5082483;28;20019;-70
2021/11/17 11:34:29;;;;;;;83.55;23.42;;;;;;;;;;5100702;28;20020;-70
2021/11/17 11:36:55;;;;;;;99.43;23.67;;;;;;;;;;5100349;28;20012;-71
2021/11/17 11:39:21;;;;;;;118.22;23.92;;;;;;;;;;5100161;28;20333;-70
2021/11/17 11:42:03;;;;;;;164.82;36.85;;;;;;;;;;5082372;28;20027;-71
2021/11/17 11:44:35;;;;;;;102.40;28.38;;;;;;;;;;5100502;28;20028;-71
2021/11/17 11:47:04;;;;;;;137.98;30.63;;;;;;;;;;5101084;28;20075;-71
2021/11/17 11:49:47;;;;;;;130.52;30.08;;;;;;;;;;5082440;28;20024;-71
2021/11/17 11:52:26;;;;;;;72.68;23.90;;;;;;;;;;5100944;28;20061;-71
2021/11/17 11:54:55;;;;;;;78.88;19.77;;;;;;;;;;5099749;28;20019;-71
2021/11/17 11:57:30;;;;;;;124.22;24.65;;;;;;;;;;5100356;28;20056;-71
2021/11/17 11:59:58;;;;;;;66.53;19.67;;;;;;;;;;5065859;28;20042;-71
2021/11/17 12:02:27;;;;;;;115.10;23.17;;;;;;;;;;5082179;28;20039;-71
2021/11/17 12:04:58;;;;;;;86.10;20.73;;;;;;;;;;5081925;28;20035;-71
2021/11/17 12:07:39;;;;;;;64.63;18.33;;;;;;;;;;5082678;28;20077;-71
2021/11/17 12:10:11;;;;;;;97.63;19.23;;;;;;;;;;5082594;28;20329;-71
2021/11/17 12:12:39;;;;;;;71.20;18.23;;;;;;;;;;5065283;28;20027;-70
2021/11/17 12:15:11;;;;;;;57.60;16.40;;;;;;;;;;5100369;28;20020;-70
2021/11/17 12:17:38;;;;;;;66.53;19.63;;;;;;;;;;5100173;28;20024;-70
2021/11/17 12:20:25;;;;;;;59.63;17.38;;;;;;;;;;5085177;28;20295;-70
2021/11/17 12:22:54;;;;;;;89.90;20.80;;;;;;;;;;5081955;28;20032;-71
2021/11/17 12:25:29;;;;;;;111.63;23.73;;;;;;;;;;5065334;28;20414;-71
2021/11/17 12:28:03;;;;;;;126.30;28.45;;;;;;;;;;5082405;28;20061;-71
2021/11/17 12:30:48;;;;;;;81.20;18.02;;;;;;;;;;5065559;28;20058;-71
2021/11/17 12:33:40;;;;;;;72.95;14.65;;;;;;;;;;5082113;28;20445;-71
2021/11/17 12:36:25;;;;;;;52.83;18.23;;;;;;;;;;5082330;28;20429;-71
2021/11/17 12:38:52;;;;;;;72.70;16.10;;;;;;;;;;5099807;28;20020;-71
2021/11/17 12:41:24;;;;;;;65.95;17.98;;;;;;;;;;5082317;28;20400;-71
2021/11/17 12:43:58;;;;;;;68.55;16.52;;;;;;;;;;5081708;28;20101;-71
2021/11/17 12:46:32;;;;;;;45.63;13.63;;;;;;;;;;5100119;28;20020;-71
2021/11/17 12:49:27;;;;;;;63.53;16.90;;;;;;;;;;5081510;28;20111;-71
2021/11/17 12:51:54;;;;;;;58.97;14.13;;;;;;;;;;5069933;28;20028;-71
2021/11/17 12:54:24;;;;;;;80.50;20.65;;;;;;;;;;5082904;28;20349;-70
2021/11/17 12:56:56;;;;;;;50.83;15.73;;;;;;;;;;5100351;28;20077;-70
2021/11/17 12:59:26;;;;;;;55.33;15.93;;;;;;;;;;5100112;28;20333;-70
2021/11/17 13:01:55;;;;;;;52.88;13.35;;;;;;;;;;5065580;28;20333;-70
2021/11/17 13:04:25;;;;;;;51.75;11.07;;;;;;;;;;5099450;28;20146;-70
2021/11/17 13:07:02;;;;;;;40.67;11.60;;;;;;;;;;5081717;28;20027;-70
2021/11/17 13:09:30;;;;;;;56.85;15.02;;;;;;;;;;5080408;28;20036;-70
2021/11/17 13:12:00;;;;;;;46.00;13.38;;;;;;;;;;5099600;28;20024;-70
2021/11/17 13:14:33;;;;;;;47.83;13.85;;;;;;;;;;5098966;28;20027;-70
2021/11/17 13:17:21;;;;;;;80.35;15.80;;;;;;;;;;5081175;28;20024;-70
2021/11/17 13:19:52;;;;;;;70.68;13.68;;;;;;;;;;5081595;28;20020;-70
2021/11/17 13:22:27;;;;;;;93.72;18.88;;;;;;;;;;5081007;28;20016;-70
2021/11/17 13:25:14;;;;;;;68.72;19.05;;;;;;;;;;5098860;28;20023;-70
2021/11/17 13:28:06;;;;;;;64.97;13.52;;;;;;;;;;5098974;28;20020;-70
2021/11/17 13:30:47;;;;;;;61.05;15.02;;;;;;;;;;5095331;28;20036;-70
2021/11/17 13:33:12;;;;;;;;;;;;;;;;;;5098600;28;20074;-70
2021/11/17 13:35:38;;;;;;;50.67;12.85;;;;;;;;;;5080593;28;19911;-70
2021/11/17 13:38:11;;;;;;;67.47;14.80;;;;;;;;;;5098489;28;20043;-70
2021/11/17 13:40:37;;;;;;;44.83;13.27;;;;;;;;;;5098719;28;20020;-70
2021/11/17 13:43:03;;;;;;;58.63;13.95;;;;;;;;;;5098156;28;20062;-70
2021/11/17 13:45:29;;;;;;;56.30;12.63;;;;;;;;;;5098359;28;20469;-70
2021/11/17 13:47:56;;;;;;;70.22;15.43;;;;;;;;;;5098172;28;20133;-70
2021/11/17 13:50:23;;;;;;;52.03;13.10;;;;;;;;;;5079776;28;20026;-70
2021/11/17 13:52:50;;;;;;;60.58;15.48;;;;;;;;;;5079970;28;20020;-70
2021/11/17 13:55:21;;;;;;;71.15;15.32;;;;;;;;;;5098477;28;20022;-70
2021/11/17 13:57:48;;;;;;;73.88;15.57;;;;;;;;;;5098164;28;20069;-70
2021/11/17 14:00:15;;;;;;;65.68;15.57;;;;;;;;;;5098570;28;20016;-70
2021/11/17 14:02:42;;;;;;;83.38;16.88;;;;;;;;;;5098054;28;20134;-70
2021/11/17 14:05:08;;;;;;;96.22;16.30;;;;;;;;;;5079995;28;20022;-70
2021/11/17 14:07:35;;;;;;;71.55;17.85;;;;;;;;;;5080314;28;20114;-70
2021/11/17 14:10:03;;;;;;;106.40;19.08;;;;;;;;;;5098350;28;20028;-70
2021/11/17 14:12:29;;;;;;;106.43;19.60;;;;;;;;;;5080546;28;20027;-70
2021/11/17 14:14:55;;;;;;;55.60;16.48;;;;;;;;;;5080514;28;20016;-70
2021/11/17 14:17:21;;;;;;;54.25;14.90;;;;;;;;;;5097963;28;20020;-70
2021/11/17 14:19:49;;;;;;;73.70;16.17;;;;;;;;;;5080244;28;20020;-70
2021/11/17 14:22:15;;;;;;;55.53;17.15;;;;;;;;;;5098424;28;20094;-71
2021/11/17 14:24:41;;;;;;;83.28;14.18;;;;;;;;;;5098447;28;20020;-70
2021/11/17 14:27:10;;;;;;;72.53;18.35;;;;;;;;;;5079843;28;20023;-70
2021/11/17 14:29:47;;;;;;;75.63;19.65;;;;;;;;;;5097464;28;20441;-70
2021/11/17 14:32:22;;;;;;;66.65;14.40;;;;;;;;;;5079733;28;20023;-70
2021/11/17 14:34:49;;;;;;;74.20;15.35;;;;;;;;;;5097959;28;20020;-70
2021/11/17 14:37:15;;;;;;;77.05;15.90;;;;;;;;;;5079627;28;20019;-70
2021/11/17 14:39:42;;;;;;;85.68;22.27;;;;;;;;;;5097726;28;20046;-70
2021/11/17 14:42:09;;;;;;;67.13;17.10;;;;;;;;;;5079458;28;20020;-70
2021/11/17 14:44:35;;;;;;;104.93;22.35;;;;;;;;;;5097990;28;20026;-70
2021/11/17 14:47:01;;;;;;;56.50;14.82;;;;;;;;;;5097529;28;20035;-71
2021/11/17 14:49:31;;;;;;;45.22;12.88;;;;;;;;;;5097874;28;20030;-71
2021/11/17 14:51:58;;;;;;;55.70;13.18;;;;;;;;;;5097460;28;20467;-71
2021/11/17 14:54:24;;;;;;;55.38;13.52;;;;;;;;;;5097678;28;20074;-71
2021/11/17 14:56:50;;;;;;;57.72;12.38;;;;;;;;;;5079082;28;20020;-72
2021/11/17 14:59:16;;;;;;;36.05;11.77;;;;;;;;;;5079335;28;20393;-71
2021/11/17 15:01:43;;;;;;;55.15;13.30;;;;;;;;;;5062962;28;20016;-72
2021/11/17 15:04:10;;;;;;;47.83;12.82;;;;;;;;;;5097333;28;20088;-72
2021/11/17 15:06:37;;;;;;;32.20;11.98;;;;;;;;;;5079269;28;20073;-72
2021/11/17 15:09:05;;;;;;;28.00;11.63;;;;;;;;;;5079411;28;20028;-71
2021/11/17 15:11:41;;;;;;;35.53;9.35;;;;;;;;;;5079236;28;20031;-71
2021/11/17 15:14:07;;;;;;;39.03;11.30;;;;;;;;;;5079223;28;20103;-71
2021/11/17 15:16:33;;;;;;;24.48;10.63;;;;;;;;;;5079284;28;20333;-71
2021/11/17 15:18:59;;;;;;;41.63;11.43;;;;;;;;;;5097063;28;20325;-71
2021/11/17 15:21:25;;;;;;;41.75;12.77;;;;;;;;;;5097067;28;20102;-72
2021/11/17 15:23:51;;;;;;;22.00;7.40;;;;;;;;;;5079056;28;20067;-72
2021/11/17 15:26:18;;;;;;;24.48;6.90;;;;;;;;;;5079123;28;20065;-71
2021/11/17 15:28:46;;;;;;;19.00;9.32;;;;;;;;;;5097048;28;20031;-71
2021/11/17 15:31:15;;;;;;;19.65;6.22;;;;;;;;;;5078687;28;20016;-71
2021/11/17 15:33:42;;;;;;;25.60;8.63;;;;;;;;;;5078460;28;20417;-72
2021/11/17 15:36:10;;;;;;;22.05;7.63;;;;;;;;;;5079291;28;20036;-71
2021/11/17 15:38:38;;;;;;;23.00;6.53;;;;;;;;;;5079300;28;20055;-71
2021/11/17 15:41:06;;;;;;;19.02;5.50;;;;;;;;;;5062637;28;20020;-71
2021/11/17 15:43:32;;;;;;;16.17;5.78;;;;;;;;;;5078845;28;20044;-71
2021/11/17 15:45:58;;;;;;;28.80;7.32;;;;;;;;;;5098031;28;20036;-71
2021/11/17 15:48:26;;;;;;;17.58;7.75;;;;;;;;;;5082655;28;20085;-71
2021/11/17 15:51:05;;;;;;;28.30;6.75;;;;;;;;;;5082940;28;20020;-71
2021/11/17 15:53:31;;;;;;;15.07;7.72;;;;;;;;;;5082793;28;20107;-71
2021/11/17 15:55:57;;;;;;;25.48;6.97;;;;;;;;;;5083027;28;20329;-71
2021/11/17 15:58:23;;;;;;;17.23;7.03;;;;;;;;;;5082668;28;20017;-71
2021/11/17 16:00:50;;;;;;;29.10;6.70;;;;;;;;;;5082727;28;20030;-71
2021/11/17 16:03:17;;;;;;;19.55;6.50;;;;;;;;;;5082428;28;20039;-72
2021/11/17 16:05:45;;;;;;;23.92;7.18;;;;;;;;;;5081683;28;20016;-71
2021/11/17 16:08:12;;;;;;;20.13;7.95;;;;;;;;;;5082249;28;20101;-72
2021/11/17 16:10:38;;;;;;;21.98;9.60;;;;;;;;;;5082386;28;20020;-72
2021/11/17 16:13:05;;;;;;;25.65;9.43;;;;;;;;;;5100233;28;20028;-71
2021/11/17 16:15:31;;;;;;;22.98;7.47;;;;;;;;;;5082461;28;20107;-72
2021/11/17 16:17:58;;;;;;;28.25;8.75;;;;;;;;;;5100210;28;20024;-71
2021/11/17 16:20:32;;;;;;;31.65;9.18;;;;;;;;;;5081833;28;20040;-71
2021/11/17 16:25:32;;;;;;;16.95;5.50;;;;;;;;;;5082004;28;20062;-72
2021/11/17 16:25:53;;;;;;;26.92;7.00;;;;;;;;;;5099818;28;20398;-72
2021/11/17 16:28:22;;;;;;;24.75;6.72;;;;;;;;;;5082156;28;20016;-72
2021/11/17 16:30:49;;;;;;;14.82;8.65;;;;;;;;;;5099962;28;20065;-72
2021/11/17 16:33:17;;;;;;;20.73;6.57;;;;;;;;;;5081208;28;20487;-72
2021/11/17 16:35:44;;;;;;;18.13;5.35;;;;;;;;;;5081615;28;20024;-72
2021/11/17 16:38:11;;;;;;;23.55;5.53;;;;;;;;;;5081593;28;20017;-71
2021/11/17 16:40:37;;;;;;;33.42;7.10;;;;;;;;;;5064880;28;20114;-72
2021/11/17 16:43:07;;;;;;;15.40;6.85;;;;;;;;;;5100007;28;20028;-72
2021/11/17 16:45:35;;;;;;;29.52;6.63;;;;;;;;;;5080879;28;20357;-72
2021/11/17 16:48:03;;;;;;;14.07;5.70;;;;;;;;;;5081361;28;20031;-72
2021/11/17 16:50:29;;;;;;;30.80;7.00;;;;;;;;;;5099276;28;20054;-72
2021/11/17 16:52:55;;;;;;;16.08;5.13;;;;;;;;;;5081138;28;20329;-72
2021/11/17 16:55:25;;;;;;;19.27;5.47;;;;;;;;;;5064403;28;20035;-72
2021/11/17 16:57:51;;;;;;;;;;;;;;;;;;5081761;28;20039;-72
2021/11/17 17:00:19;;;;;;;28.25;7.22;;;;;;;;;;5081434;28;19904;-72
2021/11/17 17:02:46;;;;;;;19.27;6.60;;;;;;;;;;5099484;28;20039;-72
2021/11/17 17:05:12;;;;;;;19.40;5.55;;;;;;;;;;5064321;28;20065;-72
2021/11/17 17:07:38;;;;;;;22.30;5.80;;;;;;;;;;5081347;28;20027;-72
2021/11/17 17:10:07;;;;;;;17.85;4.68;;;;;;;;;;5099343;28;20321;-72
2021/11/17 17:12:33;;;;;;;17.20;5.85;;;;;;;;;;5099392;28;20019;-72
2021/11/17 17:14:59;;;;;;;23.33;5.57;;;;;;;;;;5080990;28;20015;-72
2021/11/17 17:17:26;;;;;;;22.48;7.20;;;;;;;;;;5098795;28;20084;-72
2021/11/17 17:19:53;;;;;;;28.20;8.80;;;;;;;;;;5098785;28;20066;-72